KDHT/DHT METAR and TAF weather

Enter ICAO airport designator
Station Type Date Time Source
KDHT METAR 2020/12/01 21:53 UTC NOAA

KDHT 012153Z AUTO 01027G36KT 10SM CLR 12/M11 A2987 RMK AO2 PK WND 01036/2142 SLP113 T01171111


Station Type Date Time Source
KDHT Decoded METAR 2020/12/01 21:53 UTC NOAA

DALHART MUNICIPAL AIRPORT, TX, United States (KDHT) 36-01N 102-33W 1217M
Dec 01, 2020 - 04:53 PM EST / 2020.12.01 2153 UTC
Wind: from the N (010 degrees) at 31 MPH (27 KT) gusting to 41 MPH (36 KT):0
Visibility: 10 mile(s):0
Sky conditions: clear
Temperature: 53.1 F (11.7 C)
Dew Point: 12.0 F (-11.1 C)
Relative Humidity: 19%
Pressure (altimeter): 29.87 in. Hg (1011 hPa)
ob: KDHT 012153Z AUTO 01027G36KT 10SM CLR 12/M11 A2987 RMK AO2 PK WND 01036/2142 SLP113 T01171111
cycle: 22

Station Type Date Time Source
KDHT TAF 2020/12/01 18:59 UTC NOAA

TAF KDHT 011759Z 0118/0218 02015KT P6SM SKC
FM020000 01022G33KT P6SM OVC150
FM020600 36023G35KT P6SM BKN030 OVC050
FM021300 36024G40KT P6SM -SN SCT010 OVC080

Example: see airport list